sensor_id;sensor_type;location;lat;lon;timestamp;P1;durP1;ratioP1;P2;durP2;ratioP2
75358;SDS011;64046;51.978;5.934;2024-03-02T00:01:32;3.25;;;1.65;;
75358;SDS011;64046;51.978;5.934;2024-03-02T00:04:02;4.03;;;1.50;;
75358;SDS011;64046;51.978;5.934;2024-03-02T00:06:34;1.52;;;1.10;;
75358;SDS011;64046;51.978;5.934;2024-03-02T00:09:06;2.00;;;1.40;;
75358;SDS011;64046;51.978;5.934;2024-03-02T00:11:39;2.88;;;1.73;;
75358;SDS011;64046;51.978;5.934;2024-03-02T00:14:10;2.45;;;1.63;;
75358;SDS011;64046;51.978;5.934;2024-03-02T00:16:40;3.72;;;1.75;;
75358;SDS011;64046;51.978;5.934;2024-03-02T00:19:10;2.05;;;1.33;;
75358;SDS011;64046;51.978;5.934;2024-03-02T00:21:40;3.47;;;1.63;;
75358;SDS011;64046;51.978;5.934;2024-03-02T00:24:17;4.07;;;1.33;;
75358;SDS011;64046;51.978;5.934;2024-03-02T00:26:49;2.63;;;1.35;;
75358;SDS011;64046;51.978;5.934;2024-03-02T00:29:16;4.00;;;1.38;;
75358;SDS011;64046;51.978;5.934;2024-03-02T00:31:47;2.42;;;1.58;;
75358;SDS011;64046;51.978;5.934;2024-03-02T00:34:16;4.05;;;2.13;;
75358;SDS011;64046;51.978;5.934;2024-03-02T00:36:46;4.13;;;2.60;;
75358;SDS011;64046;51.978;5.934;2024-03-02T00:39:18;9.40;;;3.60;;
75358;SDS011;64046;51.978;5.934;2024-03-02T00:41:47;3.33;;;2.20;;
75358;SDS011;64046;51.978;5.934;2024-03-02T00:44:17;6.10;;;2.70;;
75358;SDS011;64046;51.978;5.934;2024-03-02T00:46:56;5.10;;;2.40;;
75358;SDS011;64046;51.978;5.934;2024-03-02T00:49:29;3.25;;;1.83;;
75358;SDS011;64046;51.978;5.934;2024-03-02T00:51:58;8.98;;;2.95;;
75358;SDS011;64046;51.978;5.934;2024-03-02T00:54:30;4.35;;;2.55;;
75358;SDS011;64046;51.978;5.934;2024-03-02T00:57:00;5.60;;;1.95;;
75358;SDS011;64046;51.978;5.934;2024-03-02T00:59:29;8.38;;;3.17;;
75358;SDS011;64046;51.978;5.934;2024-03-02T01:01:58;3.38;;;1.80;;
75358;SDS011;64046;51.978;5.934;2024-03-02T01:04:27;2.70;;;1.80;;
75358;SDS011;64046;51.978;5.934;2024-03-02T01:06:57;4.20;;;1.90;;
75358;SDS011;64046;51.978;5.934;2024-03-02T01:09:27;3.35;;;1.80;;
75358;SDS011;64046;51.978;5.934;2024-03-02T01:11:59;7.70;;;2.90;;
75358;SDS011;64046;51.978;5.934;2024-03-02T01:14:28;3.85;;;2.20;;
75358;SDS011;64046;51.978;5.934;2024-03-02T01:16:57;7.30;;;2.55;;
75358;SDS011;64046;51.978;5.934;2024-03-02T01:19:29;7.65;;;3.83;;
75358;SDS011;64046;51.978;5.934;2024-03-02T01:21:59;8.43;;;3.13;;
75358;SDS011;64046;51.978;5.934;2024-03-02T01:24:32;8.05;;;4.03;;
75358;SDS011;64046;51.978;5.934;2024-03-02T01:27:02;5.10;;;2.33;;
75358;SDS011;64046;51.978;5.934;2024-03-02T01:29:31;5.30;;;2.75;;
75358;SDS011;64046;51.978;5.934;2024-03-02T01:32:01;2.90;;;1.63;;
75358;SDS011;64046;51.978;5.934;2024-03-02T01:34:30;5.53;;;1.67;;
75358;SDS011;64046;51.978;5.934;2024-03-02T01:36:59;4.35;;;1.45;;
75358;SDS011;64046;51.978;5.934;2024-03-02T01:39:29;4.28;;;1.30;;
75358;SDS011;64046;51.978;5.934;2024-03-02T01:42:01;2.35;;;1.25;;
75358;SDS011;64046;51.978;5.934;2024-03-02T01:44:30;2.30;;;1.48;;
75358;SDS011;64046;51.978;5.934;2024-03-02T01:46:59;2.78;;;1.30;;
75358;SDS011;64046;51.978;5.934;2024-03-02T01:49:29;3.63;;;1.80;;
75358;SDS011;64046;51.978;5.934;2024-03-02T01:52:00;4.40;;;1.70;;
75358;SDS011;64046;51.978;5.934;2024-03-02T01:54:32;2.92;;;1.75;;
75358;SDS011;64046;51.978;5.934;2024-03-02T01:57:01;3.03;;;1.10;;
75358;SDS011;64046;51.978;5.934;2024-03-02T01:59:30;5.95;;;2.10;;
75358;SDS011;64046;51.978;5.934;2024-03-02T02:02:00;6.53;;;2.58;;
75358;SDS011;64046;51.978;5.934;2024-03-02T02:04:29;3.45;;;1.35;;
75358;SDS011;64046;51.978;5.934;2024-03-02T02:06:59;2.90;;;1.35;;
75358;SDS011;64046;51.978;5.934;2024-03-02T02:09:28;1.75;;;1.10;;
75358;SDS011;64046;51.978;5.934;2024-03-02T02:12:00;4.32;;;1.67;;
75358;SDS011;64046;51.978;5.934;2024-03-02T02:14:32;4.15;;;1.50;;
75358;SDS011;64046;51.978;5.934;2024-03-02T02:17:02;2.72;;;1.40;;
75358;SDS011;64046;51.978;5.934;2024-03-02T02:19:31;3.03;;;1.50;;
75358;SDS011;64046;51.978;5.934;2024-03-02T02:22:03;2.78;;;2.03;;
75358;SDS011;64046;51.978;5.934;2024-03-02T02:24:33;3.40;;;1.60;;
75358;SDS011;64046;51.978;5.934;2024-03-02T02:27:02;1.30;;;0.90;;
75358;SDS011;64046;51.978;5.934;2024-03-02T02:29:32;2.38;;;1.10;;
75358;SDS011;64046;51.978;5.934;2024-03-02T02:32:01;2.55;;;1.13;;
75358;SDS011;64046;51.978;5.934;2024-03-02T02:34:31;1.38;;;1.05;;
75358;SDS011;64046;51.978;5.934;2024-03-02T02:37:03;4.05;;;1.92;;
75358;SDS011;64046;51.978;5.934;2024-03-02T02:39:32;3.22;;;1.50;;
75358;SDS011;64046;51.978;5.934;2024-03-02T02:42:01;3.90;;;1.33;;
75358;SDS011;64046;51.978;5.934;2024-03-02T02:44:31;1.52;;;1.00;;
75358;SDS011;64046;51.978;5.934;2024-03-02T02:47:00;1.58;;;1.10;;
75358;SDS011;64046;51.978;5.934;2024-03-02T02:49:31;1.80;;;1.02;;
75358;SDS011;64046;51.978;5.934;2024-03-02T02:52:03;2.35;;;0.85;;
75358;SDS011;64046;51.978;5.934;2024-03-02T02:54:32;1.63;;;1.00;;
75358;SDS011;64046;51.978;5.934;2024-03-02T02:57:02;1.63;;;1.02;;
75358;SDS011;64046;51.978;5.934;2024-03-02T02:59:31;2.75;;;1.48;;
75358;SDS011;64046;51.978;5.934;2024-03-02T03:02:01;2.60;;;1.33;;
75358;SDS011;64046;51.978;5.934;2024-03-02T03:04:30;3.13;;;1.50;;
75358;SDS011;64046;51.978;5.934;2024-03-02T03:06:59;3.03;;;1.73;;
75358;SDS011;64046;51.978;5.934;2024-03-02T03:09:31;2.17;;;1.20;;
75358;SDS011;64046;51.978;5.934;2024-03-02T03:12:00;2.10;;;1.10;;
75358;SDS011;64046;51.978;5.934;2024-03-02T03:14:30;1.20;;;0.70;;
75358;SDS011;64046;51.978;5.934;2024-03-02T03:17:00;0.77;;;0.75;;
75358;SDS011;64046;51.978;5.934;2024-03-02T03:19:29;0.77;;;0.70;;
75358;SDS011;64046;51.978;5.934;2024-03-02T03:21:59;1.20;;;0.73;;
75358;SDS011;64046;51.978;5.934;2024-03-02T03:24:32;1.95;;;1.05;;
75358;SDS011;64046;51.978;5.934;2024-03-02T03:27:01;2.58;;;0.85;;
75358;SDS011;64046;51.978;5.934;2024-03-02T03:29:31;0.60;;;0.60;;
75358;SDS011;64046;51.978;5.934;2024-03-02T03:32:00;1.25;;;0.70;;
75358;SDS011;64046;51.978;5.934;2024-03-02T03:34:32;0.73;;;0.65;;
75358;SDS011;64046;51.978;5.934;2024-03-02T03:37:01;1.17;;;0.80;;
75358;SDS011;64046;51.978;5.934;2024-03-02T03:39:34;1.55;;;0.70;;
75358;SDS011;64046;51.978;5.934;2024-03-02T03:42:04;0.88;;;0.80;;
75358;SDS011;64046;51.978;5.934;2024-03-02T03:44:34;0.73;;;0.60;;
75358;SDS011;64046;51.978;5.934;2024-03-02T03:47:05;1.20;;;0.80;;
75358;SDS011;64046;51.978;5.934;2024-03-02T03:49:35;1.63;;;1.00;;
75358;SDS011;64046;51.978;5.934;2024-03-02T03:52:04;1.38;;;0.75;;
75358;SDS011;64046;51.978;5.934;2024-03-02T03:54:36;2.25;;;0.77;;
75358;SDS011;64046;51.978;5.934;2024-03-02T03:57:06;1.10;;;0.70;;
75358;SDS011;64046;51.978;5.934;2024-03-02T03:59:35;4.45;;;1.15;;
75358;SDS011;64046;51.978;5.934;2024-03-02T04:02:05;0.85;;;0.80;;
75358;SDS011;64046;51.978;5.934;2024-03-02T04:04:34;0.82;;;0.80;;
75358;SDS011;64046;51.978;5.934;2024-03-02T04:07:04;1.23;;;0.70;;
75358;SDS011;64046;51.978;5.934;2024-03-02T04:09:36;3.50;;;0.90;;
75358;SDS011;64046;51.978;5.934;2024-03-02T04:12:05;1.92;;;0.80;;
75358;SDS011;64046;51.978;5.934;2024-03-02T04:14:35;1.25;;;0.98;;
75358;SDS011;64046;51.978;5.934;2024-03-02T04:17:04;0.73;;;0.70;;
75358;SDS011;64046;51.978;5.934;2024-03-02T04:19:34;1.40;;;0.88;;
75358;SDS011;64046;51.978;5.934;2024-03-02T04:22:03;1.75;;;0.80;;
75358;SDS011;64046;51.978;5.934;2024-03-02T04:24:33;2.35;;;0.80;;
75358;SDS011;64046;51.978;5.934;2024-03-02T04:27:05;1.67;;;0.80;;
75358;SDS011;64046;51.978;5.934;2024-03-02T04:29:34;0.70;;;0.70;;
75358;SDS011;64046;51.978;5.934;2024-03-02T04:32:03;2.17;;;0.80;;
75358;SDS011;64046;51.978;5.934;2024-03-02T04:34:33;1.00;;;0.70;;
75358;SDS011;64046;51.978;5.934;2024-03-02T04:37:02;1.17;;;0.80;;
75358;SDS011;64046;51.978;5.934;2024-03-02T04:39:32;3.42;;;0.90;;
75358;SDS011;64046;51.978;5.934;2024-03-02T04:42:05;0.85;;;0.73;;
75358;SDS011;64046;51.978;5.934;2024-03-02T04:44:35;2.85;;;1.55;;
75358;SDS011;64046;51.978;5.934;2024-03-02T04:47:04;1.90;;;1.13;;
75358;SDS011;64046;51.978;5.934;2024-03-02T04:49:36;1.75;;;1.10;;
75358;SDS011;64046;51.978;5.934;2024-03-02T04:52:05;2.10;;;1.10;;
75358;SDS011;64046;51.978;5.934;2024-03-02T04:54:34;3.35;;;1.67;;
75358;SDS011;64046;51.978;5.934;2024-03-02T04:57:27;3.13;;;1.35;;
75358;SDS011;64046;51.978;5.934;2024-03-02T04:59:56;2.70;;;1.10;;
75358;SDS011;64046;51.978;5.934;2024-03-02T05:02:26;1.90;;;1.10;;
75358;SDS011;64046;51.978;5.934;2024-03-02T05:04:55;1.92;;;1.20;;
75358;SDS011;64046;51.978;5.934;2024-03-02T05:07:24;2.60;;;1.45;;
75358;SDS011;64046;51.978;5.934;2024-03-02T05:09:54;2.53;;;1.10;;
75358;SDS011;64046;51.978;5.934;2024-03-02T05:12:23;1.08;;;0.80;;
75358;SDS011;64046;51.978;5.934;2024-03-02T05:15:16;1.67;;;0.80;;
75358;SDS011;64046;51.978;5.934;2024-03-02T05:17:46;1.95;;;0.90;;
75358;SDS011;64046;51.978;5.934;2024-03-02T05:20:15;1.35;;;0.85;;
75358;SDS011;64046;51.978;5.934;2024-03-02T05:22:44;3.50;;;1.10;;
75358;SDS011;64046;51.978;5.934;2024-03-02T05:25:14;0.88;;;0.80;;
75358;SDS011;64046;51.978;5.934;2024-03-02T05:27:44;1.83;;;0.85;;
75358;SDS011;64046;51.978;5.934;2024-03-02T05:30:17;2.05;;;1.00;;
75358;SDS011;64046;51.978;5.934;2024-03-02T05:32:46;1.33;;;0.80;;
75358;SDS011;64046;51.978;5.934;2024-03-02T05:35:15;0.70;;;0.70;;
75358;SDS011;64046;51.978;5.934;2024-03-02T05:37:45;1.35;;;0.85;;
75358;SDS011;64046;51.978;5.934;2024-03-02T05:40:14;1.20;;;0.90;;
75358;SDS011;64046;51.978;5.934;2024-03-02T05:42:44;1.23;;;0.80;;
75358;SDS011;64046;51.978;5.934;2024-03-02T05:45:13;1.15;;;0.88;;
75358;SDS011;64046;51.978;5.934;2024-03-02T05:47:45;0.90;;;0.70;;
75358;SDS011;64046;51.978;5.934;2024-03-02T05:50:15;0.90;;;0.77;;
75358;SDS011;64046;51.978;5.934;2024-03-02T05:52:45;2.13;;;0.90;;
75358;SDS011;64046;51.978;5.934;2024-03-02T05:55:15;1.23;;;0.90;;
75358;SDS011;64046;51.978;5.934;2024-03-02T05:57:44;1.25;;;0.80;;
75358;SDS011;64046;51.978;5.934;2024-03-02T06:00:28;1.50;;;0.93;;
75358;SDS011;64046;51.978;5.934;2024-03-02T06:03:00;1.25;;;0.70;;
75358;SDS011;64046;51.978;5.934;2024-03-02T06:05:29;3.25;;;0.93;;
75358;SDS011;64046;51.978;5.934;2024-03-02T06:07:59;2.90;;;1.00;;
75358;SDS011;64046;51.978;5.934;2024-03-02T06:10:28;1.20;;;0.85;;
75358;SDS011;64046;51.978;5.934;2024-03-02T06:12:57;3.55;;;0.90;;
75358;SDS011;64046;51.978;5.934;2024-03-02T06:15:27;1.40;;;0.82;;
75358;SDS011;64046;51.978;5.934;2024-03-02T06:17:57;0.88;;;0.75;;
75358;SDS011;64046;51.978;5.934;2024-03-02T06:20:29;1.00;;;0.80;;
75358;SDS011;64046;51.978;5.934;2024-03-02T06:22:59;1.23;;;0.80;;
75358;SDS011;64046;51.978;5.934;2024-03-02T06:25:31;2.10;;;1.00;;
75358;SDS011;64046;51.978;5.934;2024-03-02T06:28:00;1.02;;;0.80;;
75358;SDS011;64046;51.978;5.934;2024-03-02T06:30:30;1.25;;;0.88;;
75358;SDS011;64046;51.978;5.934;2024-03-02T06:33:04;1.25;;;0.80;;
75358;SDS011;64046;51.978;5.934;2024-03-02T06:35:33;2.58;;;0.93;;
75358;SDS011;64046;51.978;5.934;2024-03-02T06:38:05;2.72;;;0.90;;
75358;SDS011;64046;51.978;5.934;2024-03-02T06:40:35;2.55;;;0.90;;
75358;SDS011;64046;51.978;5.934;2024-03-02T06:43:06;1.38;;;0.80;;
75358;SDS011;64046;51.978;5.934;2024-03-02T06:45:35;1.08;;;0.80;;
75358;SDS011;64046;51.978;5.934;2024-03-02T06:48:08;1.48;;;0.70;;
75358;SDS011;64046;51.978;5.934;2024-03-02T06:50:37;3.70;;;1.20;;
75358;SDS011;64046;51.978;5.934;2024-03-02T06:53:07;3.58;;;1.67;;
75358;SDS011;64046;51.978;5.934;2024-03-02T06:55:36;5.75;;;2.80;;
75358;SDS011;64046;51.978;5.934;2024-03-02T06:58:05;5.03;;;2.70;;
75358;SDS011;64046;51.978;5.934;2024-03-02T07:00:35;2.30;;;1.45;;
75358;SDS011;64046;51.978;5.934;2024-03-02T07:03:04;2.42;;;1.20;;
75358;SDS011;64046;51.978;5.934;2024-03-02T07:05:37;3.83;;;1.10;;
75358;SDS011;64046;51.978;5.934;2024-03-02T07:08:07;1.40;;;0.80;;
75358;SDS011;64046;51.978;5.934;2024-03-02T07:10:37;3.53;;;1.00;;
75358;SDS011;64046;51.978;5.934;2024-03-02T07:13:06;1.55;;;0.90;;
75358;SDS011;64046;51.978;5.934;2024-03-02T07:15:36;1.00;;;0.80;;
75358;SDS011;64046;51.978;5.934;2024-03-02T07:18:34;2.97;;;1.20;;
75358;SDS011;64046;51.978;5.934;2024-03-02T07:21:07;1.75;;;0.85;;
75358;SDS011;64046;51.978;5.934;2024-03-02T07:23:36;2.17;;;1.27;;
75358;SDS011;64046;51.978;5.934;2024-03-02T07:26:05;2.25;;;1.20;;
75358;SDS011;64046;51.978;5.934;2024-03-02T07:28:35;4.88;;;1.60;;
75358;SDS011;64046;51.978;5.934;2024-03-02T07:31:04;2.03;;;1.05;;
75358;SDS011;64046;51.978;5.934;2024-03-02T07:33:39;2.05;;;1.05;;
75358;SDS011;64046;51.978;5.934;2024-03-02T07:36:09;2.45;;;1.20;;
75358;SDS011;64046;51.978;5.934;2024-03-02T07:38:38;4.00;;;1.17;;
75358;SDS011;64046;51.978;5.934;2024-03-02T07:41:08;4.30;;;1.02;;
75358;SDS011;64046;51.978;5.934;2024-03-02T07:43:37;2.28;;;1.40;;
75358;SDS011;64046;51.978;5.934;2024-03-02T07:46:07;5.05;;;1.58;;
75358;SDS011;64046;51.978;5.934;2024-03-02T07:48:37;2.88;;;1.20;;
75358;SDS011;64046;51.978;5.934;2024-03-02T07:51:09;1.77;;;1.20;;
75358;SDS011;64046;51.978;5.934;2024-03-02T07:53:40;2.22;;;1.23;;
75358;SDS011;64046;51.978;5.934;2024-03-02T07:56:10;2.47;;;1.27;;
75358;SDS011;64046;51.978;5.934;2024-03-02T07:58:39;3.15;;;1.40;;
75358;SDS011;64046;51.978;5.934;2024-03-02T08:01:13;3.92;;;1.25;;
75358;SDS011;64046;51.978;5.934;2024-03-02T08:03:45;2.88;;;1.40;;
75358;SDS011;64046;51.978;5.934;2024-03-02T08:06:16;2.58;;;1.50;;
75358;SDS011;64046;51.978;5.934;2024-03-02T08:08:47;3.58;;;1.33;;
75358;SDS011;64046;51.978;5.934;2024-03-02T08:11:17;3.65;;;1.38;;
75358;SDS011;64046;51.978;5.934;2024-03-02T08:13:46;4.70;;;1.77;;
75358;SDS011;64046;51.978;5.934;2024-03-02T08:16:16;3.15;;;1.67;;
75358;SDS011;64046;51.978;5.934;2024-03-02T08:18:49;2.67;;;1.38;;
75358;SDS011;64046;51.978;5.934;2024-03-02T08:21:18;3.53;;;1.38;;
75358;SDS011;64046;51.978;5.934;2024-03-02T08:23:48;4.32;;;2.13;;
75358;SDS011;64046;51.978;5.934;2024-03-02T08:26:18;4.50;;;1.20;;
75358;SDS011;64046;51.978;5.934;2024-03-02T08:28:47;4.22;;;1.80;;
75358;SDS011;64046;51.978;5.934;2024-03-02T08:31:17;4.88;;;1.33;;
75358;SDS011;64046;51.978;5.934;2024-03-02T08:33:49;3.53;;;1.63;;
75358;SDS011;64046;51.978;5.934;2024-03-02T08:36:18;3.17;;;1.40;;
75358;SDS011;64046;51.978;5.934;2024-03-02T08:38:48;3.28;;;1.77;;
75358;SDS011;64046;51.978;5.934;2024-03-02T08:41:18;5.63;;;1.95;;
75358;SDS011;64046;51.978;5.934;2024-03-02T08:43:48;2.60;;;1.50;;
75358;SDS011;64046;51.978;5.934;2024-03-02T08:46:23;4.07;;;1.90;;
75358;SDS011;64046;51.978;5.934;2024-03-02T08:48:55;4.75;;;1.67;;
75358;SDS011;64046;51.978;5.934;2024-03-02T08:51:24;6.70;;;1.80;;
75358;SDS011;64046;51.978;5.934;2024-03-02T08:53:54;7.00;;;2.20;;
75358;SDS011;64046;51.978;5.934;2024-03-02T08:56:26;2.45;;;1.08;;
75358;SDS011;64046;51.978;5.934;2024-03-02T08:58:56;2.90;;;1.30;;
75358;SDS011;64046;51.978;5.934;2024-03-02T09:01:25;10.45;;;2.28;;
75358;SDS011;64046;51.978;5.934;2024-03-02T09:03:57;8.68;;;2.10;;
75358;SDS011;64046;51.978;5.934;2024-03-02T09:06:27;5.30;;;1.48;;
75358;SDS011;64046;51.978;5.934;2024-03-02T09:08:56;4.32;;;1.20;;
75358;SDS011;64046;51.978;5.934;2024-03-02T09:11:26;6.35;;;1.63;;
75358;SDS011;64046;51.978;5.934;2024-03-02T09:13:55;5.22;;;1.30;;
75358;SDS011;64046;51.978;5.934;2024-03-02T09:16:25;3.22;;;0.98;;
75358;SDS011;64046;51.978;5.934;2024-03-02T09:18:59;2.67;;;1.17;;
75358;SDS011;64046;51.978;5.934;2024-03-02T09:21:32;5.47;;;1.45;;
75358;SDS011;64046;51.978;5.934;2024-03-02T09:24:01;4.93;;;1.90;;
75358;SDS011;64046;51.978;5.934;2024-03-02T09:26:33;6.43;;;1.80;;
75358;SDS011;64046;51.978;5.934;2024-03-02T09:29:03;3.92;;;1.50;;
75358;SDS011;64046;51.978;5.934;2024-03-02T09:31:32;3.97;;;1.65;;
75358;SDS011;64046;51.978;5.934;2024-03-02T09:34:04;5.88;;;1.70;;
75358;SDS011;64046;51.978;5.934;2024-03-02T09:36:33;2.60;;;1.33;;
75358;SDS011;64046;51.978;5.934;2024-03-02T09:39:03;5.72;;;1.85;;
75358;SDS011;64046;51.978;5.934;2024-03-02T09:41:32;5.53;;;1.83;;
75358;SDS011;64046;51.978;5.934;2024-03-02T09:44:02;5.13;;;1.40;;
75358;SDS011;64046;51.978;5.934;2024-03-02T09:46:32;3.28;;;1.80;;
75358;SDS011;64046;51.978;5.934;2024-03-02T09:49:05;5.72;;;1.55;;
75358;SDS011;64046;51.978;5.934;2024-03-02T09:51:34;4.90;;;1.80;;
75358;SDS011;64046;51.978;5.934;2024-03-02T09:54:05;5.30;;;1.88;;
75358;SDS011;64046;51.978;5.934;2024-03-02T09:56:36;3.08;;;1.40;;
75358;SDS011;64046;51.978;5.934;2024-03-02T09:59:06;5.07;;;1.30;;
75358;SDS011;64046;51.978;5.934;2024-03-02T10:01:35;6.00;;;1.20;;
75358;SDS011;64046;51.978;5.934;2024-03-02T10:04:07;3.95;;;1.10;;
75358;SDS011;64046;51.978;5.934;2024-03-02T10:06:37;7.15;;;1.52;;
75358;SDS011;64046;51.978;5.934;2024-03-02T10:09:07;4.28;;;1.50;;
75358;SDS011;64046;51.978;5.934;2024-03-02T10:11:36;3.00;;;1.15;;
75358;SDS011;64046;51.978;5.934;2024-03-02T10:14:06;4.03;;;1.52;;
75358;SDS011;64046;51.978;5.934;2024-03-02T10:16:37;5.80;;;2.00;;
75358;SDS011;64046;51.978;5.934;2024-03-02T10:19:20;6.40;;;2.08;;
75358;SDS011;64046;51.978;5.934;2024-03-02T10:21:54;5.28;;;1.90;;
75358;SDS011;64046;51.978;5.934;2024-03-02T10:24:24;4.22;;;1.60;;
75358;SDS011;64046;51.978;5.934;2024-03-02T10:26:53;6.10;;;1.45;;
75358;SDS011;64046;51.978;5.934;2024-03-02T10:29:23;3.13;;;1.40;;
75358;SDS011;64046;51.978;5.934;2024-03-02T10:31:54;2.92;;;1.50;;
75358;SDS011;64046;51.978;5.934;2024-03-02T10:34:27;3.22;;;1.50;;
75358;SDS011;64046;51.978;5.934;2024-03-02T10:36:56;3.78;;;1.40;;
75358;SDS011;64046;51.978;5.934;2024-03-02T10:39:27;2.58;;;1.17;;
75358;SDS011;64046;51.978;5.934;2024-03-02T10:41:57;2.13;;;1.17;;
75358;SDS011;64046;51.978;5.934;2024-03-02T10:44:29;7.88;;;1.30;;
75358;SDS011;64046;51.978;5.934;2024-03-02T10:47:00;2.30;;;1.10;;
75358;SDS011;64046;51.978;5.934;2024-03-02T10:49:33;2.58;;;1.20;;
75358;SDS011;64046;51.978;5.934;2024-03-02T10:52:03;3.95;;;1.27;;
75358;SDS011;64046;51.978;5.934;2024-03-02T10:54:34;2.88;;;1.17;;
75358;SDS011;64046;51.978;5.934;2024-03-02T10:57:06;1.58;;;1.05;;
75358;SDS011;64046;51.978;5.934;2024-03-02T10:59:37;5.38;;;1.30;;
75358;SDS011;64046;51.978;5.934;2024-03-02T11:02:20;4.07;;;1.10;;
75358;SDS011;64046;51.978;5.934;2024-03-02T11:04:54;2.97;;;1.30;;
75358;SDS011;64046;51.978;5.934;2024-03-02T11:07:24;5.35;;;1.77;;
75358;SDS011;64046;51.978;5.934;2024-03-02T11:09:57;3.72;;;1.30;;
75358;SDS011;64046;51.978;5.934;2024-03-02T11:12:35;4.60;;;1.40;;
75358;SDS011;64046;51.978;5.934;2024-03-02T11:15:09;4.22;;;1.00;;
75358;SDS011;64046;51.978;5.934;2024-03-02T11:17:39;2.55;;;1.30;;
75358;SDS011;64046;51.978;5.934;2024-03-02T11:20:13;4.40;;;1.58;;
75358;SDS011;64046;51.978;5.934;2024-03-02T11:22:44;2.40;;;1.08;;
75358;SDS011;64046;51.978;5.934;2024-03-02T11:25:24;2.58;;;1.20;;
75358;SDS011;64046;51.978;5.934;2024-03-02T11:28:01;2.90;;;1.25;;
75358;SDS011;64046;51.978;5.934;2024-03-02T11:33:22;4.72;;;1.20;;
75358;SDS011;64046;51.978;5.934;2024-03-02T11:35:57;3.45;;;1.50;;
75358;SDS011;64046;51.978;5.934;2024-03-02T11:38:28;5.53;;;1.20;;
75358;SDS011;64046;51.978;5.934;2024-03-02T11:40:59;3.42;;;1.70;;
75358;SDS011;64046;51.978;5.934;2024-03-02T11:43:29;2.80;;;1.52;;
75358;SDS011;64046;51.978;5.934;2024-03-02T11:45:59;2.92;;;1.30;;
75358;SDS011;64046;51.978;5.934;2024-03-02T11:48:30;4.00;;;1.20;;
75358;SDS011;64046;51.978;5.934;2024-03-02T11:51:04;2.75;;;1.27;;
75358;SDS011;64046;51.978;5.934;2024-03-02T11:53:33;3.75;;;1.40;;
75358;SDS011;64046;51.978;5.934;2024-03-02T11:56:09;2.75;;;1.20;;
75358;SDS011;64046;51.978;5.934;2024-03-02T11:58:40;2.42;;;1.40;;
75358;SDS011;64046;51.978;5.934;2024-03-02T12:01:10;3.25;;;1.00;;
75358;SDS011;64046;51.978;5.934;2024-03-02T12:03:40;2.90;;;1.33;;
75358;SDS011;64046;51.978;5.934;2024-03-02T12:06:12;2.70;;;1.10;;
75358;SDS011;64046;51.978;5.934;2024-03-02T12:08:44;3.42;;;1.00;;
75358;SDS011;64046;51.978;5.934;2024-03-02T12:11:13;4.63;;;1.15;;
75358;SDS011;64046;51.978;5.934;2024-03-02T12:13:51;2.97;;;1.10;;
75358;SDS011;64046;51.978;5.934;2024-03-02T12:16:25;3.30;;;1.48;;
75358;SDS011;64046;51.978;5.934;2024-03-02T12:18:54;2.90;;;1.40;;
75358;SDS011;64046;51.978;5.934;2024-03-02T12:21:27;2.85;;;1.38;;
75358;SDS011;64046;51.978;5.934;2024-03-02T12:23:56;4.72;;;1.10;;
75358;SDS011;64046;51.978;5.934;2024-03-02T12:26:25;3.07;;;1.37;;
75358;SDS011;64046;51.978;5.934;2024-03-02T12:28:55;5.53;;;2.20;;
75358;SDS011;64046;51.978;5.934;2024-03-02T12:31:24;4.40;;;1.65;;
75358;SDS011;64046;51.978;5.934;2024-03-02T12:33:54;3.72;;;1.40;;
75358;SDS011;64046;51.978;5.934;2024-03-02T12:36:23;6.95;;;1.52;;
75358;SDS011;64046;51.978;5.934;2024-03-02T12:38:55;3.88;;;1.27;;
75358;SDS011;64046;51.978;5.934;2024-03-02T12:41:25;1.58;;;1.00;;
75358;SDS011;64046;51.978;5.934;2024-03-02T12:43:54;2.75;;;1.20;;
75358;SDS011;64046;51.978;5.934;2024-03-02T12:46:24;3.60;;;1.23;;
75358;SDS011;64046;51.978;5.934;2024-03-02T12:48:53;5.07;;;1.40;;
75358;SDS011;64046;51.978;5.934;2024-03-02T12:51:23;4.05;;;1.13;;
75358;SDS011;64046;51.978;5.934;2024-03-02T12:53:58;4.20;;;1.30;;
75358;SDS011;64046;51.978;5.934;2024-03-02T12:56:29;2.50;;;1.15;;
75358;SDS011;64046;51.978;5.934;2024-03-02T12:58:58;5.13;;;1.20;;
75358;SDS011;64046;51.978;5.934;2024-03-02T13:01:28;3.65;;;1.10;;
75358;SDS011;64046;51.978;5.934;2024-03-02T13:03:58;2.63;;;1.27;;
75358;SDS011;64046;51.978;5.934;2024-03-02T13:06:28;1.92;;;0.90;;
75358;SDS011;64046;51.978;5.934;2024-03-02T13:09:00;2.63;;;1.10;;
75358;SDS011;64046;51.978;5.934;2024-03-02T13:11:29;1.92;;;1.08;;
75358;SDS011;64046;51.978;5.934;2024-03-02T13:14:00;1.58;;;1.10;;
75358;SDS011;64046;51.978;5.934;2024-03-02T13:16:30;4.45;;;1.60;;
75358;SDS011;64046;51.978;5.934;2024-03-02T13:19:00;5.53;;;1.58;;
75358;SDS011;64046;51.978;5.934;2024-03-02T13:21:29;3.38;;;1.60;;
75358;SDS011;64046;51.978;5.934;2024-03-02T13:24:01;4.32;;;1.38;;
75358;SDS011;64046;51.978;5.934;2024-03-02T13:26:31;2.20;;;1.25;;
75358;SDS011;64046;51.978;5.934;2024-03-02T13:29:01;2.70;;;1.20;;
75358;SDS011;64046;51.978;5.934;2024-03-02T13:31:30;3.63;;;1.45;;
75358;SDS011;64046;51.978;5.934;2024-03-02T13:33:59;3.50;;;1.50;;
75358;SDS011;64046;51.978;5.934;2024-03-02T13:36:29;3.38;;;1.30;;
75358;SDS011;64046;51.978;5.934;2024-03-02T13:39:01;5.30;;;2.22;;
75358;SDS011;64046;51.978;5.934;2024-03-02T13:41:31;4.93;;;1.35;;
75358;SDS011;64046;51.978;5.934;2024-03-02T13:44:01;5.43;;;1.33;;
75358;SDS011;64046;51.978;5.934;2024-03-02T13:46:30;3.45;;;1.48;;
75358;SDS011;64046;51.978;5.934;2024-03-02T13:48:59;3.13;;;1.65;;
75358;SDS011;64046;51.978;5.934;2024-03-02T13:51:30;3.92;;;1.42;;
75358;SDS011;64046;51.978;5.934;2024-03-02T13:54:01;2.47;;;1.30;;
75358;SDS011;64046;51.978;5.934;2024-03-02T13:56:31;3.63;;;1.35;;
75358;SDS011;64046;51.978;5.934;2024-03-02T13:59:01;3.95;;;1.63;;
75358;SDS011;64046;51.978;5.934;2024-03-02T14:01:31;3.60;;;1.13;;
75358;SDS011;64046;51.978;5.934;2024-03-02T14:04:01;4.03;;;1.10;;
75358;SDS011;64046;51.978;5.934;2024-03-02T14:06:31;2.30;;;1.05;;
75358;SDS011;64046;51.978;5.934;2024-03-02T14:09:03;4.82;;;1.30;;
75358;SDS011;64046;51.978;5.934;2024-03-02T14:11:33;4.85;;;1.20;;
75358;SDS011;64046;51.978;5.934;2024-03-02T14:14:02;2.85;;;1.33;;
75358;SDS011;64046;51.978;5.934;2024-03-02T14:16:31;1.55;;;1.00;;
75358;SDS011;64046;51.978;5.934;2024-03-02T14:19:01;3.17;;;1.40;;
75358;SDS011;64046;51.978;5.934;2024-03-02T14:21:31;3.10;;;1.02;;
75358;SDS011;64046;51.978;5.934;2024-03-02T14:24:04;2.47;;;0.88;;
75358;SDS011;64046;51.978;5.934;2024-03-02T14:26:35;2.25;;;1.35;;
75358;SDS011;64046;51.978;5.934;2024-03-02T14:29:05;2.97;;;1.13;;
75358;SDS011;64046;51.978;5.934;2024-03-02T14:31:34;3.65;;;1.40;;
75358;SDS011;64046;51.978;5.934;2024-03-02T14:34:04;2.28;;;1.10;;
75358;SDS011;64046;51.978;5.934;2024-03-02T14:36:33;4.07;;;1.38;;
75358;SDS011;64046;51.978;5.934;2024-03-02T14:39:05;2.55;;;1.20;;
75358;SDS011;64046;51.978;5.934;2024-03-02T14:41:36;5.55;;;1.20;;
75358;SDS011;64046;51.978;5.934;2024-03-02T14:44:05;5.63;;;1.20;;
75358;SDS011;64046;51.978;5.934;2024-03-02T14:46:35;3.92;;;1.30;;
75358;SDS011;64046;51.978;5.934;2024-03-02T14:49:04;4.32;;;1.50;;
75358;SDS011;64046;51.978;5.934;2024-03-02T14:51:34;3.05;;;1.10;;
75358;SDS011;64046;51.978;5.934;2024-03-02T14:54:06;2.45;;;1.23;;
75358;SDS011;64046;51.978;5.934;2024-03-02T14:56:35;3.08;;;1.30;;
75358;SDS011;64046;51.978;5.934;2024-03-02T14:59:04;5.82;;;1.10;;
75358;SDS011;64046;51.978;5.934;2024-03-02T15:01:34;2.28;;;1.20;;
75358;SDS011;64046;51.978;5.934;2024-03-02T15:04:03;2.40;;;1.30;;
75358;SDS011;64046;51.978;5.934;2024-03-02T15:06:33;2.42;;;1.10;;
75358;SDS011;64046;51.978;5.934;2024-03-02T15:09:02;4.93;;;1.20;;
75358;SDS011;64046;51.978;5.934;2024-03-02T15:11:34;2.22;;;1.10;;